Italic G — IBYH — position and weather

sailwx.info

Track history (hours):
 
Tides and Currents Weather Stations Pressure Air Temp Water Temp Dewpoint Dewpoint Depression Visibility Wind Speed Wind Dir Waves Ship Positions

Italic G

Last reported at 2017-May-12 01:56 UTC. Time now 2017-May-22 19:33 UTC.
Position N 27°35' W 015°18'.
Warning: this ship's position is 10 days out of date.

Length 229 m; draft 8 m.

Type: Cargo ship. MMSI: 247282300.

Date/timePositionNaut miles runAvg speedWind from/ knotsBaromVisibWave heightAir tempDewpointWater temp
2017-May-12 01:56N 27°35' W 015°18'511.6
2017-May-12 01:30N 27°39' W 015°15'611.6
2017-May-12 01:00N 27°44' W 015°12'611.6
2017-May-12 00:30N 27°50' W 015°09'611.5
2017-May-12 00:00N 27°55' W 015°06'611.5
2017-May-11 23:30N 28°00' W 015°04'5 9.9
2017-May-11 23:00N 28°03' W 015°08'611.6
2017-May-11 22:30N 28°05' W 015°15'611.7
2017-May-11 22:00N 28°06' W 015°21'3 4.2
2017-May-11 21:24N 28°07' W 015°24'0 0.0
2017-May-11 20:54N 28°07' W 015°24'0 0.0
2017-May-11 20:24N 28°07' W 015°24'0 0.1
2017-May-11 19:57N 28°07' W 015°24'0 0.0
2017-May-11 19:27N 28°07' W 015°24'0 0.0
2017-May-11 18:57N 28°07' W 015°24'0 0.1
2017-May-11 18:27N 28°07' W 015°24'0 0.0
2017-May-11 17:57N 28°07' W 015°24'0 0.1
2017-May-11 17:30N 28°07' W 015°24'0 0.1
2017-May-11 17:00N 28°07' W 015°24'0 0.1
2017-May-11 16:30N 28°07' W 015°24'0 0.1
2017-May-11 16:00N 28°07' W 015°24'0 0.0
2017-May-11 15:30N 28°07' W 015°24'0 0.1
2017-May-11 15:00N 28°07' W 015°24'0 0.0
2017-May-11 14:00N 28°07' W 015°24'0 0.0
2017-May-11 13:30N 28°07' W 015°24'0 0.0
2017-May-11 13:00N 28°07' W 015°24'0 0.0
2017-May-11 12:30N 28°07' W 015°24'0 0.0
2017-May-11 12:00N 28°07' W 015°24'0 0.0
2017-May-11 11:30N 28°07' W 015°24'0 0.0
2017-May-11 11:01N 28°07' W 015°24'0 0.1
2017-May-11 10:30N 28°07' W 015°24'0 0.1
2017-May-11 10:00N 28°07' W 015°24'0 0.2
2017-May-11 09:30N 28°07' W 015°24'0 0.3
2017-May-11 09:00N 28°07' W 015°24'2 3.3
2017-May-11 08:30N 28°07' W 015°22'510.6
2017-May-11 08:01N 28°08' W 015°16'612.0
2017-May-11 07:30N 28°09' W 015°10'611.8
2017-May-11 07:00N 28°10' W 015°03'510.5
2017-May-11 06:30N 28°13' W 014°58'612.5
2017-May-11 06:00N 28°19' W 014°56'612.0
2017-May-11 05:30N 28°24' W 014°52'611.8
2017-May-11 05:00N 28°29' W 014°49'611.7
2017-May-11 04:30N 28°34' W 014°45'611.9
2017-May-11 04:00N 28°39' W 014°41'611.8
2017-May-11 03:29N 28°44' W 014°37'711.8
2017-May-11 02:54N 28°50' W 014°33'511.6
2017-May-11 02:27N 28°54' W 014°30'511.5
2017-May-11 01:59N 28°58' W 014°26'50210.9
2017-May-09 03:55N 35°01' W 007°37'2011.1
2017-May-09 02:05N 35°14' W 007°19'111.0
2017-May-09 02:00N 35°14' W 007°18'611.5
2017-May-09 01:30N 35°18' W 007°12'611.4
2017-May-09 01:00N 35°22' W 007°07'611.4
2017-May-09 00:27N 35°26' W 007°01'611.5
2017-May-08 23:54N 35°30' W 006°55'511.5
2017-May-08 23:30N 35°33' W 006°51'911.6
2017-May-08 22:43N 35°39' W 006°42'29711.5
2017-May-07 20:49N 36°40' W 000°42'2012.1
2017-May-07 19:10N 36°44' W 000°17'212.3
2017-May-07 18:59N 36°45' W 000°15'612.2
2017-May-07 18:28N 36°46' W 000°07'612.1
2017-May-07 18:00N 36°47' W 000°00'712.1
2017-May-07 17:28N 36°48' E 000°08'612.1
2017-May-07 16:57N 36°50' E 000°16'712.0
2017-May-07 16:23N 36°51' E 000°24'512.0
2017-May-07 15:57N 36°52' E 000°30'512.1
2017-May-07 15:29N 36°53' E 000°37'2012.2
2017-May-07 13:52N 36°58' E 001°01'412.2
2017-May-07 13:30N 36°59' E 001°06'612.1
2017-May-07 13:00N 37°00' E 001°14'611.9
2017-May-07 12:30N 37°02' E 001°21'612.2
2017-May-07 12:00N 37°03' E 001°29'612.1
2017-May-07 11:30N 37°04' E 001°36'612.0
2017-May-07 11:00N 37°05' E 001°43'612.0
2017-May-07 10:30N 37°05' E 001°51'612.5
2017-May-07 10:00N 37°06' E 001°59'612.7
2017-May-07 09:30N 37°07' E 002°07'612.7
2017-May-07 09:00N 37°09' E 002°14'612.7
2017-May-07 08:30N 37°10' E 002°22'612.6
2017-May-07 08:00N 37°11' E 002°30'612.3
2017-May-07 07:30N 37°12' E 002°38'39311.5
2017-May-05 21:20N 37°32' E 010°51'612.4
2017-May-05 20:49N 37°30' E 010°59'512.5
2017-May-05 20:26N 37°28' E 011°04'512.4
2017-May-05 20:00N 37°27' E 011°11'4112.3
2017-May-05 16:37N 37°15' E 012°01'212.3
2017-May-05 16:30N 37°15' E 012°03'612.1
2017-May-05 16:00N 37°13' E 012°10'612.0
2017-May-05 15:29N 37°11' E 012°17'1012.0
2017-May-05 14:38N 37°09' E 012°30'711.5
2017-May-05 14:00N 37°06' E 012°38'611.4
2017-May-05 13:30N 37°03' E 012°44'611.9
2017-May-05 12:59N 36°59' E 012°50'5 9.5
2017-May-05 12:30N 36°59' E 012°56'4 8.3
2017-May-05 12:00N 36°59' E 013°01'611.2
2017-May-05 11:30N 36°59' E 013°08'911.8
2017-May-05 10:45N 36°57' E 013°19'312.0
2017-May-05 10:30N 36°56' E 013°23'1212.3
2017-May-05 09:34N 36°53' E 013°36'112.3
2017-May-05 09:29N 36°52' E 013°38'612.1
2017-May-05 09:00N 36°51' E 013°45'611.9
2017-May-05 08:30N 36°49' E 013°52'612.0
2017-May-05 08:00N 36°47' E 013°59'612.1
2017-May-05 07:30N 36°45' E 014°06'712.2
2017-May-05 06:57N 36°43' E 014°14'512.2
2017-May-05 06:30N 36°42' E 014°21'612.1
2017-May-05 06:00N 36°40' E 014°28'612.1
2017-May-05 05:30N 36°38' E 014°35'612.1
2017-May-05 05:00N 36°36' E 014°42'611.9
2017-May-05 04:29N 36°35' E 014°49'611.8
2017-May-05 04:00N 36°33' E 014°56'1511.5
2017-May-05 02:41N 36°34' E 015°15'211.8
2017-May-05 02:30N 36°35' E 015°17'611.4
2017-May-05 02:00N 36°38' E 015°23'611.9
2017-May-05 01:30N 36°43' E 015°28'612.1
2017-May-05 01:00N 36°47' E 015°33'811.9
2017-May-05 00:18N 36°54' E 015°39'411.9
2017-May-05 00:00N 36°57' E 015°42'612.0
2017-May-04 23:30N 37°02' E 015°47'612.0
2017-May-04 23:00N 37°06' E 015°51'612.0
2017-May-04 22:29N 37°11' E 015°56'612.2
2017-May-04 22:00N 37°16' E 016°01'611.9
2017-May-04 21:30N 37°20' E 016°06'9411.9
2017-May-04 13:34N 38°35' E 017°20'111.7
2017-May-04 13:30N 38°35' E 017°20'611.6
2017-May-04 13:00N 38°40' E 017°25'3011.9
2017-May-04 10:29N 39°03' E 017°49'1112.0
2017-May-04 09:35N 39°11' E 017°58'112.2
2017-May-04 09:29N 39°12' E 017°59'612.1
2017-May-04 08:59N 39°17' E 018°03'612.2
2017-May-04 08:27N 39°22' E 018°08'32711.1
2017-May-03 03:06N 44°05' E 014°30'112.2
2017-May-03 03:00N 44°06' E 014°29'612.2
2017-May-03 02:30N 44°12' E 014°25'612.3
2017-May-03 02:00N 44°17' E 014°20'612.5
2017-May-03 01:30N 44°22' E 014°15'612.4
2017-May-03 01:00N 44°28' E 014°11'612.0
2017-May-03 00:30N 44°34' E 014°10'612.3
2017-May-03 00:00N 44°40' E 014°11'612.2
2017-May-02 23:29N 44°46' E 014°12'612.1
2017-May-02 23:00N 44°52' E 014°13'1912.0
2017-May-02 21:24N 45°11' E 014°17'612.2
2017-May-02 20:55N 45°14' E 014°24'510.6
2017-May-02 20:29N 45°16' E 014°30'  
Track history (hours):
 
Tides and Currents Weather Stations Pressure Air Temp Water Temp Dewpoint Dewpoint Depression Visibility Wind Speed Wind Dir Waves Ship Positions

Italic G

Last reported at 2017-May-12 01:56 UTC. Time now 2017-May-22 19:33 UTC.
Position N 27°35' W 015°18'.
Warning: this ship's position is 10 days out of date.

Length 229 m; draft 8 m.

Type: Cargo ship. MMSI: 247282300.

Date/timePositionNaut miles runAvg speedWind from/ knotsBaromVisibWave heightAir tempDewpointWater temp
2017-May-12 01:56N 27°35' W 015°18'511.6
2017-May-12 01:30N 27°39' W 015°15'611.6
2017-May-12 01:00N 27°44' W 015°12'611.6
2017-May-12 00:30N 27°50' W 015°09'611.5
2017-May-12 00:00N 27°55' W 015°06'611.5
2017-May-11 23:30N 28°00' W 015°04'5 9.9
2017-May-11 23:00N 28°03' W 015°08'611.6
2017-May-11 22:30N 28°05' W 015°15'611.7
2017-May-11 22:00N 28°06' W 015°21'3 4.2
2017-May-11 21:24N 28°07' W 015°24'0 0.0
2017-May-11 20:54N 28°07' W 015°24'0 0.0
2017-May-11 20:24N 28°07' W 015°24'0 0.1
2017-May-11 19:57N 28°07' W 015°24'0 0.0
2017-May-11 19:27N 28°07' W 015°24'0 0.0
2017-May-11 18:57N 28°07' W 015°24'0 0.1
2017-May-11 18:27N 28°07' W 015°24'0 0.0
2017-May-11 17:57N 28°07' W 015°24'0 0.1
2017-May-11 17:30N 28°07' W 015°24'0 0.1
2017-May-11 17:00N 28°07' W 015°24'0 0.1
2017-May-11 16:30N 28°07' W 015°24'0 0.1
2017-May-11 16:00N 28°07' W 015°24'0 0.0
2017-May-11 15:30N 28°07' W 015°24'0 0.1
2017-May-11 15:00N 28°07' W 015°24'0 0.0
2017-May-11 14:00N 28°07' W 015°24'0 0.0
2017-May-11 13:30N 28°07' W 015°24'0 0.0
2017-May-11 13:00N 28°07' W 015°24'0 0.0
2017-May-11 12:30N 28°07' W 015°24'0 0.0
2017-May-11 12:00N 28°07' W 015°24'0 0.0
2017-May-11 11:30N 28°07' W 015°24'0 0.0
2017-May-11 11:01N 28°07' W 015°24'0 0.1
2017-May-11 10:30N 28°07' W 015°24'0 0.1
2017-May-11 10:00N 28°07' W 015°24'0 0.2
2017-May-11 09:30N 28°07' W 015°24'0 0.3
2017-May-11 09:00N 28°07' W 015°24'2 3.3
2017-May-11 08:30N 28°07' W 015°22'510.6
2017-May-11 08:01N 28°08' W 015°16'612.0
2017-May-11 07:30N 28°09' W 015°10'611.8
2017-May-11 07:00N 28°10' W 015°03'510.5
2017-May-11 06:30N 28°13' W 014°58'612.5
2017-May-11 06:00N 28°19' W 014°56'612.0
2017-May-11 05:30N 28°24' W 014°52'611.8
2017-May-11 05:00N 28°29' W 014°49'611.7
2017-May-11 04:30N 28°34' W 014°45'611.9
2017-May-11 04:00N 28°39' W 014°41'611.8
2017-May-11 03:29N 28°44' W 014°37'711.8
2017-May-11 02:54N 28°50' W 014°33'511.6
2017-May-11 02:27N 28°54' W 014°30'511.5
2017-May-11 01:59N 28°58' W 014°26'50210.9
2017-May-09 03:55N 35°01' W 007°37'2011.1
2017-May-09 02:05N 35°14' W 007°19'111.0
2017-May-09 02:00N 35°14' W 007°18'611.5
2017-May-09 01:30N 35°18' W 007°12'611.4
2017-May-09 01:00N 35°22' W 007°07'611.4
2017-May-09 00:27N 35°26' W 007°01'611.5
2017-May-08 23:54N 35°30' W 006°55'511.5
2017-May-08 23:30N 35°33' W 006°51'911.6
2017-May-08 22:43N 35°39' W 006°42'29711.5
2017-May-07 20:49N 36°40' W 000°42'2012.1
2017-May-07 19:10N 36°44' W 000°17'212.3
2017-May-07 18:59N 36°45' W 000°15'612.2
2017-May-07 18:28N 36°46' W 000°07'612.1
2017-May-07 18:00N 36°47' W 000°00'712.1
2017-May-07 17:28N 36°48' E 000°08'612.1
2017-May-07 16:57N 36°50' E 000°16'712.0
2017-May-07 16:23N 36°51' E 000°24'512.0
2017-May-07 15:57N 36°52' E 000°30'512.1
2017-May-07 15:29N 36°53' E 000°37'2012.2
2017-May-07 13:52N 36°58' E 001°01'412.2
2017-May-07 13:30N 36°59' E 001°06'612.1
2017-May-07 13:00N 37°00' E 001°14'611.9
2017-May-07 12:30N 37°02' E 001°21'612.2
2017-May-07 12:00N 37°03' E 001°29'612.1
2017-May-07 11:30N 37°04' E 001°36'612.0
2017-May-07 11:00N 37°05' E 001°43'612.0
2017-May-07 10:30N 37°05' E 001°51'612.5
2017-May-07 10:00N 37°06' E 001°59'612.7
2017-May-07 09:30N 37°07' E 002°07'612.7
2017-May-07 09:00N 37°09' E 002°14'612.7
2017-May-07 08:30N 37°10' E 002°22'612.6
2017-May-07 08:00N 37°11' E 002°30'612.3
2017-May-07 07:30N 37°12' E 002°38'39311.5
2017-May-05 21:20N 37°32' E 010°51'612.4
2017-May-05 20:49N 37°30' E 010°59'512.5
2017-May-05 20:26N 37°28' E 011°04'512.4
2017-May-05 20:00N 37°27' E 011°11'4112.3
2017-May-05 16:37N 37°15' E 012°01'212.3
2017-May-05 16:30N 37°15' E 012°03'612.1
2017-May-05 16:00N 37°13' E 012°10'612.0
2017-May-05 15:29N 37°11' E 012°17'1012.0
2017-May-05 14:38N 37°09' E 012°30'711.5
2017-May-05 14:00N 37°06' E 012°38'611.4
2017-May-05 13:30N 37°03' E 012°44'611.9
2017-May-05 12:59N 36°59' E 012°50'5 9.5
2017-May-05 12:30N 36°59' E 012°56'4 8.3
2017-May-05 12:00N 36°59' E 013°01'611.2
2017-May-05 11:30N 36°59' E 013°08'911.8
2017-May-05 10:45N 36°57' E 013°19'312.0
2017-May-05 10:30N 36°56' E 013°23'1212.3
2017-May-05 09:34N 36°53' E 013°36'112.3
2017-May-05 09:29N 36°52' E 013°38'612.1
2017-May-05 09:00N 36°51' E 013°45'611.9
2017-May-05 08:30N 36°49' E 013°52'612.0
2017-May-05 08:00N 36°47' E 013°59'612.1
2017-May-05 07:30N 36°45' E 014°06'712.2
2017-May-05 06:57N 36°43' E 014°14'512.2
2017-May-05 06:30N 36°42' E 014°21'612.1
2017-May-05 06:00N 36°40' E 014°28'612.1
2017-May-05 05:30N 36°38' E 014°35'612.1
2017-May-05 05:00N 36°36' E 014°42'611.9
2017-May-05 04:29N 36°35' E 014°49'611.8
2017-May-05 04:00N 36°33' E 014°56'1511.5
2017-May-05 02:41N 36°34' E 015°15'211.8
2017-May-05 02:30N 36°35' E 015°17'611.4
2017-May-05 02:00N 36°38' E 015°23'611.9
2017-May-05 01:30N 36°43' E 015°28'612.1
2017-May-05 01:00N 36°47' E 015°33'811.9
2017-May-05 00:18N 36°54' E 015°39'411.9
2017-May-05 00:00N 36°57' E 015°42'612.0
2017-May-04 23:30N 37°02' E 015°47'612.0
2017-May-04 23:00N 37°06' E 015°51'612.0
2017-May-04 22:29N 37°11' E 015°56'612.2
2017-May-04 22:00N 37°16' E 016°01'611.9
2017-May-04 21:30N 37°20' E 016°06'9411.9
2017-May-04 13:34N 38°35' E 017°20'111.7
2017-May-04 13:30N 38°35' E 017°20'611.6
2017-May-04 13:00N 38°40' E 017°25'3011.9
2017-May-04 10:29N 39°03' E 017°49'1112.0
2017-May-04 09:35N 39°11' E 017°58'112.2
2017-May-04 09:29N 39°12' E 017°59'612.1
2017-May-04 08:59N 39°17' E 018°03'612.2
2017-May-04 08:27N 39°22' E 018°08'32711.1
2017-May-03 03:06N 44°05' E 014°30'112.2
2017-May-03 03:00N 44°06' E 014°29'612.2
2017-May-03 02:30N 44°12' E 014°25'612.3
2017-May-03 02:00N 44°17' E 014°20'612.5
2017-May-03 01:30N 44°22' E 014°15'612.4
2017-May-03 01:00N 44°28' E 014°11'612.0
2017-May-03 00:30N 44°34' E 014°10'612.3
2017-May-03 00:00N 44°40' E 014°11'612.2
2017-May-02 23:29N 44°46' E 014°12'612.1
2017-May-02 23:00N 44°52' E 014°13'1912.0
2017-May-02 21:24N 45°11' E 014°17'612.2
2017-May-02 20:55N 45°14' E 014°24'510.6
2017-May-02 20:29N 45°16' E 014°30'  

Dump ship's entire track history